sensor_id;sensor_type;location;lat;lon;timestamp;P1;durP1;ratioP1;P2;durP2;ratioP2
57291;SDS011;43144;50.972;18.220;2023-05-10T00:04:40;14.50;;;6.90;;
57291;SDS011;43144;50.972;18.220;2023-05-10T00:14:23;6.50;;;5.90;;
57291;SDS011;43144;50.972;18.220;2023-05-10T00:24:06;8.90;;;7.30;;
57291;SDS011;43144;50.972;18.220;2023-05-10T00:33:48;7.20;;;5.80;;
57291;SDS011;43144;50.972;18.220;2023-05-10T00:43:31;12.00;;;6.00;;
57291;SDS011;43144;50.972;18.220;2023-05-10T00:53:13;6.80;;;6.30;;
57291;SDS011;43144;50.972;18.220;2023-05-10T01:02:56;7.30;;;5.50;;
57291;SDS011;43144;50.972;18.220;2023-05-10T01:12:39;7.60;;;7.00;;
57291;SDS011;43144;50.972;18.220;2023-05-10T01:22:42;7.20;;;6.70;;
57291;SDS011;43144;50.972;18.220;2023-05-10T01:32:30;6.80;;;6.20;;
57291;SDS011;43144;50.972;18.220;2023-05-10T01:42:17;17.10;;;5.70;;
57291;SDS011;43144;50.972;18.220;2023-05-10T01:52:04;5.40;;;4.90;;
57291;SDS011;43144;50.972;18.220;2023-05-10T02:01:48;5.90;;;5.30;;
57291;SDS011;43144;50.972;18.220;2023-05-10T02:11:32;13.70;;;4.80;;
57291;SDS011;43144;50.972;18.220;2023-05-10T02:21:15;7.70;;;7.00;;
57291;SDS011;43144;50.972;18.220;2023-05-10T02:30:59;8.40;;;7.60;;
57291;SDS011;43144;50.972;18.220;2023-05-10T02:40:43;7.30;;;6.70;;
57291;SDS011;43144;50.972;18.220;2023-05-10T02:50:27;7.50;;;6.40;;
57291;SDS011;43144;50.972;18.220;2023-05-10T03:00:11;6.30;;;5.80;;
57291;SDS011;43144;50.972;18.220;2023-05-10T03:09:53;15.20;;;6.50;;
57291;SDS011;43144;50.972;18.220;2023-05-10T03:19:39;13.80;;;6.80;;
57291;SDS011;43144;50.972;18.220;2023-05-10T03:29:23;5.10;;;4.80;;
57291;SDS011;43144;50.972;18.220;2023-05-10T03:39:08;5.60;;;5.20;;
57291;SDS011;43144;50.972;18.220;2023-05-10T03:48:50;5.80;;;5.40;;
57291;SDS011;43144;50.972;18.220;2023-05-10T03:58:33;5.90;;;4.70;;
57291;SDS011;43144;50.972;18.220;2023-05-10T04:08:16;5.30;;;4.90;;
57291;SDS011;43144;50.972;18.220;2023-05-10T04:17:58;5.50;;;5.10;;
57291;SDS011;43144;50.972;18.220;2023-05-10T04:27:42;15.50;;;5.10;;
57291;SDS011;43144;50.972;18.220;2023-05-10T04:37:24;5.20;;;4.90;;
57291;SDS011;43144;50.972;18.220;2023-05-10T04:47:08;6.80;;;6.30;;
57291;SDS011;43144;50.972;18.220;2023-05-10T04:56:50;4.10;;;3.90;;
57291;SDS011;43144;50.972;18.220;2023-05-10T05:06:33;6.30;;;5.60;;
57291;SDS011;43144;50.972;18.220;2023-05-10T05:16:16;6.50;;;4.60;;
57291;SDS011;43144;50.972;18.220;2023-05-10T05:25:58;4.70;;;4.20;;
57291;SDS011;43144;50.972;18.220;2023-05-10T05:35:41;6.40;;;6.00;;
57291;SDS011;43144;50.972;18.220;2023-05-10T05:45:23;4.70;;;4.40;;
57291;SDS011;43144;50.972;18.220;2023-05-10T05:55:06;5.20;;;4.90;;
57291;SDS011;43144;50.972;18.220;2023-05-10T06:04:49;4.90;;;4.40;;
57291;SDS011;43144;50.972;18.220;2023-05-10T06:14:32;4.60;;;4.30;;
57291;SDS011;43144;50.972;18.220;2023-05-10T06:24:15;5.00;;;4.50;;
57291;SDS011;43144;50.972;18.220;2023-05-10T06:34:01;4.90;;;4.60;;
57291;SDS011;43144;50.972;18.220;2023-05-10T06:43:43;5.10;;;4.70;;
57291;SDS011;43144;50.972;18.220;2023-05-10T06:53:27;3.30;;;3.10;;
57291;SDS011;43144;50.972;18.220;2023-05-10T07:03:10;3.90;;;3.70;;
57291;SDS011;43144;50.972;18.220;2023-05-10T07:12:52;3.10;;;2.90;;
57291;SDS011;43144;50.972;18.220;2023-05-10T07:22:35;3.70;;;3.40;;
57291;SDS011;43144;50.972;18.220;2023-05-10T07:32:18;4.00;;;3.70;;
57291;SDS011;43144;50.972;18.220;2023-05-10T07:42:01;2.40;;;2.30;;
57291;SDS011;43144;50.972;18.220;2023-05-10T07:51:46;2.90;;;2.70;;
57291;SDS011;43144;50.972;18.220;2023-05-10T08:01:29;2.80;;;2.50;;
57291;SDS011;43144;50.972;18.220;2023-05-10T08:11:13;2.90;;;2.10;;
57291;SDS011;43144;50.972;18.220;2023-05-10T08:21:04;2.80;;;2.50;;
57291;SDS011;43144;50.972;18.220;2023-05-10T08:38:04;2.20;;;1.30;;
57291;SDS011;43144;50.972;18.220;2023-05-10T08:47:47;1.80;;;1.70;;
57291;SDS011;43144;50.972;18.220;2023-05-10T08:57:35;7.80;;;2.10;;
57291;SDS011;43144;50.972;18.220;2023-05-10T09:07:19;4.10;;;3.10;;
57291;SDS011;43144;50.972;18.220;2023-05-10T09:17:02;1.50;;;1.50;;
57291;SDS011;43144;50.972;18.220;2023-05-10T09:26:48;4.90;;;1.30;;
57291;SDS011;43144;50.972;18.220;2023-05-10T09:36:31;8.70;;;2.70;;
57291;SDS011;43144;50.972;18.220;2023-05-10T09:46:14;21.70;;;4.00;;
57291;SDS011;43144;50.972;18.220;2023-05-10T09:51:06;3.80;;;2.40;;
57291;SDS011;43144;50.972;18.220;2023-05-10T10:00:49;1.80;;;1.70;;
57291;SDS011;43144;50.972;18.220;2023-05-10T10:10:32;15.40;;;2.20;;
57291;SDS011;43144;50.972;18.220;2023-05-10T10:20:16;2.00;;;1.90;;
57291;SDS011;43144;50.972;18.220;2023-05-10T10:30:02;3.70;;;2.40;;
57291;SDS011;43144;50.972;18.220;2023-05-10T10:39:46;2.10;;;2.00;;
57291;SDS011;43144;50.972;18.220;2023-05-10T10:49:31;4.10;;;2.00;;
57291;SDS011;43144;50.972;18.220;2023-05-10T10:59:14;1.20;;;1.20;;
57291;SDS011;43144;50.972;18.220;2023-05-10T11:09:09;7.90;;;2.10;;
57291;SDS011;43144;50.972;18.220;2023-05-10T11:18:59;1.30;;;1.30;;
57291;SDS011;43144;50.972;18.220;2023-05-10T11:35:58;2.30;;;2.20;;
57291;SDS011;43144;50.972;18.220;2023-05-10T11:45:41;4.70;;;3.80;;
57291;SDS011;43144;50.972;18.220;2023-05-10T11:55:23;2.20;;;2.10;;
57291;SDS011;43144;50.972;18.220;2023-05-10T12:05:07;1.50;;;1.40;;
57291;SDS011;43144;50.972;18.220;2023-05-10T12:14:50;2.20;;;2.00;;
57291;SDS011;43144;50.972;18.220;2023-05-10T12:24:34;1.60;;;1.50;;
57291;SDS011;43144;50.972;18.220;2023-05-10T12:34:23;1.60;;;1.40;;
57291;SDS011;43144;50.972;18.220;2023-05-10T12:44:06;0.60;;;0.60;;
57291;SDS011;43144;50.972;18.220;2023-05-10T12:53:49;17.40;;;3.70;;
57291;SDS011;43144;50.972;18.220;2023-05-10T13:03:32;3.40;;;3.10;;
57291;SDS011;43144;50.972;18.220;2023-05-10T13:13:15;2.30;;;2.10;;
57291;SDS011;43144;50.972;18.220;2023-05-10T13:22:57;1.40;;;1.30;;
57291;SDS011;43144;50.972;18.220;2023-05-10T13:32:40;2.20;;;2.10;;
57291;SDS011;43144;50.972;18.220;2023-05-10T13:42:25;1.20;;;1.20;;
57291;SDS011;43144;50.972;18.220;2023-05-10T13:52:07;2.20;;;1.50;;
57291;SDS011;43144;50.972;18.220;2023-05-10T14:01:50;2.20;;;2.10;;
57291;SDS011;43144;50.972;18.220;2023-05-10T14:11:33;3.10;;;2.80;;
57291;SDS011;43144;50.972;18.220;2023-05-10T14:21:18;2.00;;;1.90;;
57291;SDS011;43144;50.972;18.220;2023-05-10T14:31:01;1.90;;;1.50;;
57291;SDS011;43144;50.972;18.220;2023-05-10T14:40:43;2.80;;;2.50;;
57291;SDS011;43144;50.972;18.220;2023-05-10T14:50:26;4.10;;;3.20;;
57291;SDS011;43144;50.972;18.220;2023-05-10T15:00:10;1.70;;;1.60;;
57291;SDS011;43144;50.972;18.220;2023-05-10T15:09:53;2.50;;;2.30;;
57291;SDS011;43144;50.972;18.220;2023-05-10T15:19:36;5.90;;;1.60;;
57291;SDS011;43144;50.972;18.220;2023-05-10T15:29:18;1.70;;;1.60;;
57291;SDS011;43144;50.972;18.220;2023-05-10T15:39:01;1.50;;;1.50;;
57291;SDS011;43144;50.972;18.220;2023-05-10T15:48:43;12.20;;;2.70;;
57291;SDS011;43144;50.972;18.220;2023-05-10T15:58:26;2.40;;;2.20;;
57291;SDS011;43144;50.972;18.220;2023-05-10T16:08:09;3.10;;;2.50;;
57291;SDS011;43144;50.972;18.220;2023-05-10T16:17:51;2.50;;;2.40;;
57291;SDS011;43144;50.972;18.220;2023-05-10T16:27:35;3.20;;;2.90;;
57291;SDS011;43144;50.972;18.220;2023-05-10T16:37:17;4.80;;;2.50;;
57291;SDS011;43144;50.972;18.220;2023-05-10T16:47:01;9.40;;;4.40;;
57291;SDS011;43144;50.972;18.220;2023-05-10T16:56:44;5.40;;;2.20;;
57291;SDS011;43144;50.972;18.220;2023-05-10T17:06:26;1.80;;;1.70;;
57291;SDS011;43144;50.972;18.220;2023-05-10T17:16:09;2.90;;;2.70;;
57291;SDS011;43144;50.972;18.220;2023-05-10T17:25:53;3.70;;;3.50;;
57291;SDS011;43144;50.972;18.220;2023-05-10T17:35:36;3.10;;;2.90;;
57291;SDS011;43144;50.972;18.220;2023-05-10T17:45:21;6.60;;;3.20;;
57291;SDS011;43144;50.972;18.220;2023-05-10T17:55:04;11.30;;;5.50;;
57291;SDS011;43144;50.972;18.220;2023-05-10T18:04:47;7.80;;;7.10;;
57291;SDS011;43144;50.972;18.220;2023-05-10T18:14:30;4.70;;;4.30;;
57291;SDS011;43144;50.972;18.220;2023-05-10T18:24:12;7.30;;;5.70;;
57291;SDS011;43144;50.972;18.220;2023-05-10T18:33:55;7.30;;;6.20;;
57291;SDS011;43144;50.972;18.220;2023-05-10T18:43:37;5.10;;;4.70;;
57291;SDS011;43144;50.972;18.220;2023-05-10T18:53:20;12.30;;;4.90;;
57291;SDS011;43144;50.972;18.220;2023-05-10T19:03:02;5.90;;;5.30;;
57291;SDS011;43144;50.972;18.220;2023-05-10T19:12:45;6.70;;;6.20;;
57291;SDS011;43144;50.972;18.220;2023-05-10T19:22:28;4.80;;;4.20;;
57291;SDS011;43144;50.972;18.220;2023-05-10T19:32:10;5.20;;;4.70;;
57291;SDS011;43144;50.972;18.220;2023-05-10T19:41:54;13.00;;;4.60;;
57291;SDS011;43144;50.972;18.220;2023-05-10T19:51:37;12.60;;;3.60;;
57291;SDS011;43144;50.972;18.220;2023-05-10T20:01:20;16.90;;;4.10;;
57291;SDS011;43144;50.972;18.220;2023-05-10T20:11:03;3.90;;;3.60;;
57291;SDS011;43144;50.972;18.220;2023-05-10T20:20:46;10.10;;;2.60;;
57291;SDS011;43144;50.972;18.220;2023-05-10T20:30:28;2.70;;;2.60;;
57291;SDS011;43144;50.972;18.220;2023-05-10T20:40:11;4.40;;;4.10;;
57291;SDS011;43144;50.972;18.220;2023-05-10T20:49:54;13.10;;;3.20;;
57291;SDS011;43144;50.972;18.220;2023-05-10T20:59:37;4.30;;;3.10;;
57291;SDS011;43144;50.972;18.220;2023-05-10T21:09:20;3.70;;;3.50;;
57291;SDS011;43144;50.972;18.220;2023-05-10T21:19:03;10.00;;;3.20;;
57291;SDS011;43144;50.972;18.220;2023-05-10T21:28:46;4.50;;;3.30;;
57291;SDS011;43144;50.972;18.220;2023-05-10T21:38:29;8.10;;;3.80;;
57291;SDS011;43144;50.972;18.220;2023-05-10T21:48:12;3.80;;;3.50;;
57291;SDS011;43144;50.972;18.220;2023-05-10T21:57:54;4.80;;;4.50;;
57291;SDS011;43144;50.972;18.220;2023-05-10T22:07:37;3.60;;;3.30;;
57291;SDS011;43144;50.972;18.220;2023-05-10T22:17:19;3.80;;;3.40;;
57291;SDS011;43144;50.972;18.220;2023-05-10T22:27:03;4.80;;;4.40;;
57291;SDS011;43144;50.972;18.220;2023-05-10T22:36:46;8.70;;;3.90;;
57291;SDS011;43144;50.972;18.220;2023-05-10T22:46:29;3.70;;;3.40;;
57291;SDS011;43144;50.972;18.220;2023-05-10T22:56:12;2.90;;;2.60;;
57291;SDS011;43144;50.972;18.220;2023-05-10T23:05:55;4.70;;;4.40;;
57291;SDS011;43144;50.972;18.220;2023-05-10T23:15:37;2.60;;;2.50;;
57291;SDS011;43144;50.972;18.220;2023-05-10T23:25:20;5.10;;;4.70;;
57291;SDS011;43144;50.972;18.220;2023-05-10T23:35:03;3.90;;;3.30;;
57291;SDS011;43144;50.972;18.220;2023-05-10T23:44:47;11.60;;;4.30;;
57291;SDS011;43144;50.972;18.220;2023-05-10T23:54:29;10.10;;;5.90;;
